sim
Sign-in with your pilot id or email,
or register
Callsign
Passwort

Schedule Details

Flight Number: DLH2105
Departure: Hannover Langenhagen Airport (EDDV) at 04:45
Arrival: Munich Airport (EDDM) at 05:55
Route: Lufthansa Passenger Schedule. Enter filed route here before submitting Pirep.

Weather Information
Getting current METAR information for EDDV 190250Z 10004KT CAVOK 07/03 Q1023
Getting current METAR information for EDDM 190250Z 07003KT CAVOK 05/04 Q1020 NOSIG

Schedule Frequency

Route Map